Astatula, Florida
Current Conditions -  °F | °C
As of 2:53 AM on Thursday 18 Dec 2014 (Local Time) from KLEE Reporting Station
Clear Clear  
Wind Chill: 46°   Ceiling: Unl
Heat Index: 48°   Visibility: 10mi
Dew Point: 45°   Wind: 5mph
Humidity: 89%   Direction: 310°NW
Pressure: 30.16"   Gusts: NA
Location:  28.71°N, 81.73°W
Report Text: KLEE 180753Z AUTO 31004KT 10SM CLR 09/07 A3016 RMK AO2 SLP213 T00890072
Loading
Personal Weather Stations






























Interactive Weather Map New forecast layout! Learn more

10-Day Weather Forecast

Advertisements
Track Severe Weather on mobile